This is the latest recevied weather packets stored in our database for station/object KD8OUK. If no packets are shown the sender has not sent any weather packets the latest 10 day(s).
| Time | Temp. | Humidity | Pressure | Rain* | Wind** | Luminosity | Snow |
|---|---|---|---|---|---|---|---|
| 1777966822 | 15.56° C | 82% | 1006.7 hPa | 0 mm | - | - | - |
| 1777966532 | 16.11° C | 82% | 1006.5 hPa | 0 mm | - | - | - |
| 1777966224 | 16.11° C | 80% | 1006.5 hPa | 0 mm | - | - | - |
| 1777965916 | 16.11° C | 79% | 1006.5 hPa | 0 mm | - | - | - |
| 1777965626 | 16.11° C | 79% | 1006.5 hPa | 0 mm | - | - | - |
| 1777965319 | 16.67° C | 79% | 1006.5 hPa | 0 mm | - | - | - |
| 1777965029 | 16.11° C | 80% | 1006.4 hPa | 0 mm | - | - | - |
| 1777964721 | 16.11° C | 80% | 1006.4 hPa | 0 mm | - | - | - |
| 1777964431 | 16.67° C | 77% | 1006.1 hPa | 0 mm | - | - | - |
| 1777964124 | 17.22° C | 76% | 1006 hPa | 0 mm | - | - | - |
| 1777963815 | 16.67° C | 77% | 1005.9 hPa | 0 mm | - | - | - |
| 1777963526 | 17.22° C | 75% | 1005.7 hPa | 0 mm | - | - | - |
| 1777963217 | 18.89° C | 66% | 1005.7 hPa | 0 mm | - | - | - |
| 1777962922 | 18.89° C | 64% | 1005.6 hPa | 0 mm | - | - | - |
| 1777962620 | 18.89° C | 64% | 1005.6 hPa | 0 mm | - | - | - |
| 1777962318 | 18.89° C | 64% | 1005.5 hPa | 0 mm | - | - | - |
| 1777962016 | 18.89° C | 65% | 1005.4 hPa | 0 mm | - | - | - |
| 1777961732 | 18.33° C | 65% | 1005.4 hPa | 0 mm | - | - | - |
| 1777961424 | 18.33° C | 66% | 1005.3 hPa | 0 mm | - | - | - |
| 1777961117 | 18.33° C | 66% | 1005.3 hPa | 0 mm | - | - | - |
| 1777960827 | 18.33° C | 66% | 1005.3 hPa | 0 mm | - | - | - |
| 1777960519 | 18.33° C | 67% | 1005.3 hPa | 0 mm | - | - | - |
| 1777960230 | 18.33° C | 68% | 1005.4 hPa | 0 mm | - | - | - |
| 1777959922 | 18.33° C | 68% | 1005.5 hPa | 0 mm | - | - | - |
| 1777959632 | 18.33° C | 68% | 1005.5 hPa | 0 mm | - | - | - |
* Rain latest hour (hover to see other rain measurements)
** Current wind speed in m/s (hover to see current wind gust speed)